Time;durP1;ratioP1;P1;durP2;ratioP2;P2;SDS_P1;SDS_P2;PMS_P1;PMS_P2;Temp;Humidity;BMP_temperature;BMP_pressure;BME280_temperature;BME280_humidity;BME280_pressure;Samples;Min_cycle;Max_cycle;Signal;HPM_P1;HPM_P2
2020/12/10 00:02:18;;;;;;;31.52;16.33;;;2.70;99.90;;;;;;5056060;28;20487;-84
2020/12/10 00:04:43;;;;;;;36.55;17.90;;;2.70;99.90;;;;;;5058946;28;20040;-83
2020/12/10 00:07:09;;;;;;;29.67;16.70;;;2.60;99.90;;;;;;5056118;28;20024;-84
2020/12/10 00:09:35;;;;;;;33.30;16.83;;;2.60;99.90;;;;;;5055839;28;20035;-83
2020/12/10 00:12:01;;;;;;;33.25;17.33;;;2.50;99.90;;;;;;5073798;28;20047;-83
2020/12/10 00:14:27;;;;;;;34.97;18.45;;;2.40;99.90;;;;;;5055854;28;20056;-83
2020/12/10 00:16:53;;;;;;;31.65;17.08;;;2.40;99.90;;;;;;5074559;28;20455;-83
2020/12/10 00:19:19;;;;;;;36.13;17.65;;;2.30;99.90;;;;;;5079370;28;20108;-84
2020/12/10 00:21:44;;;;;;;37.70;19.08;;;2.20;99.90;;;;;;5060928;28;20021;-84
2020/12/10 00:24:10;;;;;;;31.95;17.95;;;2.20;99.90;;;;;;5064838;28;20028;-83
2020/12/10 00:26:36;;;;;;;32.97;17.50;;;2.10;99.90;;;;;;5055897;28;20025;-83
2020/12/10 00:29:01;;;;;;;34.50;18.42;;;2.10;99.90;;;;;;5065752;28;20551;-84
2020/12/10 00:31:27;;;;;;;35.55;18.65;;;2.10;99.90;;;;;;5059304;28;20023;-83
2020/12/10 00:33:53;;;;;;;33.80;18.15;;;2.00;99.90;;;;;;5061064;28;20024;-83
2020/12/10 00:36:18;;;;;;;39.13;20.90;;;2.00;99.90;;;;;;5056102;28;20055;-83
2020/12/10 00:38:44;;;;;;;38.65;20.02;;;2.00;99.90;;;;;;5075997;28;20078;-83
2020/12/10 00:41:10;;;;;;;38.30;20.75;;;1.90;99.90;;;;;;5055232;28;20025;-83
2020/12/10 00:43:35;;;;;;;41.50;21.38;;;1.90;99.90;;;;;;5073183;28;20499;-83
2020/12/10 00:46:02;;;;;;;40.17;22.83;;;1.90;99.90;;;;;;5056546;28;20031;-83
2020/12/10 00:48:28;;;;;;;39.83;21.13;;;1.90;99.90;;;;;;5054904;28;20400;-83
2020/12/10 00:50:53;;;;;;;44.67;22.58;;;1.90;99.90;;;;;;5075998;28;20029;-83
2020/12/10 00:53:19;;;;;;;42.83;21.90;;;1.90;99.90;;;;;;5062172;28;20570;-83
2020/12/10 00:55:44;;;;;;;41.05;21.35;;;1.80;99.90;;;;;;5086914;28;20024;-83
2020/12/10 00:58:10;;;;;;;35.97;20.67;;;1.80;99.90;;;;;;5054958;28;20123;-83
2020/12/10 01:00:35;;;;;;;38.72;20.92;;;1.70;99.90;;;;;;5072879;28;20024;-83
2020/12/10 01:03:01;;;;;;;36.83;20.52;;;1.70;99.90;;;;;;5055117;28;20031;-83
2020/12/10 01:05:27;;;;;;;40.10;21.15;;;1.70;99.90;;;;;;5066125;28;20039;-83
2020/12/10 01:07:52;;;;;;;41.72;21.10;;;1.60;99.90;;;;;;5058845;28;20025;-83
2020/12/10 01:10:18;;;;;;;35.70;19.55;;;1.60;99.90;;;;;;5072738;28;20020;-84
2020/12/10 01:12:43;;;;;;;40.17;21.80;;;1.60;99.90;;;;;;5056928;28;20023;-83
2020/12/10 01:15:09;;;;;;;32.85;18.00;;;1.50;99.90;;;;;;5061039;28;20485;-83
2020/12/10 01:17:34;;;;;;;38.30;20.50;;;1.50;99.90;;;;;;5073450;28;20487;-83
2020/12/10 01:20:00;;;;;;;42.85;21.88;;;1.50;99.90;;;;;;5059423;28;20498;-83
2020/12/10 01:22:25;;;;;;;37.90;20.63;;;1.50;99.90;;;;;;5057573;28;20526;-83
2020/12/10 01:24:51;;;;;;;40.72;21.45;;;1.50;99.90;;;;;;5072105;28;20024;-82
2020/12/10 01:27:21;;;;;;;43.20;22.13;;;1.40;99.80;;;;;;5057470;28;20028;-83
2020/12/10 01:29:47;;;;;;;41.88;21.10;;;1.40;99.70;;;;;;5082170;28;20396;-83
2020/12/10 01:32:12;;;;;;;37.35;21.05;;;1.40;99.80;;;;;;5054522;28;20024;-82
2020/12/10 01:34:38;;;;;;;37.53;20.45;;;1.40;99.80;;;;;;5055042;28;20062;-83
2020/12/10 01:37:04;;;;;;;39.90;21.00;;;1.40;99.80;;;;;;5074325;28;20017;-83
2020/12/10 01:39:29;;;;;;;38.40;22.08;;;1.40;99.80;;;;;;5057397;28;20075;-83
2020/12/10 01:41:55;;;;;;;39.53;22.23;;;1.30;99.80;;;;;;5053514;28;20480;-83
2020/12/10 01:44:21;;;;;;;42.25;22.00;;;1.30;99.80;;;;;;5071499;28;20020;-83
2020/12/10 01:46:46;;;;;;;37.30;19.75;;;1.30;99.70;;;;;;5053525;28;20027;-83
2020/12/10 01:49:12;;;;;;;36.22;19.67;;;1.30;99.70;;;;;;5053419;28;20496;-83
2020/12/10 01:51:37;;;;;;;34.35;19.73;;;1.30;99.70;;;;;;5071522;28;20476;-83
2020/12/10 01:54:05;;;;;;;36.50;19.77;;;1.20;99.70;;;;;;5091163;28;20016;-83
2020/12/10 01:56:30;;;;;;;38.20;20.58;;;1.20;99.80;;;;;;5064439;28;20017;-83
2020/12/10 01:58:59;;;;;;;36.67;20.35;;;1.20;99.80;;;;;;5062619;28;20020;-83
2020/12/10 02:01:27;;;;;;;37.30;20.98;;;1.20;99.80;;;;;;5055680;28;20503;-83
2020/12/10 02:03:53;;;;;;;33.90;19.65;;;1.20;99.90;;;;;;5080116;28;20024;-83
2020/12/10 02:06:18;;;;;;;39.83;22.08;;;1.20;99.90;;;;;;5056004;28;20154;-84
2020/12/10 02:08:44;;;;;;;41.15;22.25;;;1.20;99.90;;;;;;5071942;28;20016;-84
2020/12/10 02:11:10;;;;;;;44.42;22.08;;;1.20;99.90;;;;;;5060147;28;20471;-83
2020/12/10 02:13:36;;;;;;;42.65;23.40;;;1.10;99.90;;;;;;5074948;28;20096;-84
2020/12/10 02:16:02;;;;;;;41.58;22.55;;;1.10;99.90;;;;;;5078105;28;20601;-84
2020/12/10 02:18:28;;;;;;;41.38;22.77;;;1.10;99.90;;;;;;5058964;28;20118;-84
2020/12/10 02:20:53;;;;;;;44.33;24.17;;;1.10;99.90;;;;;;5066537;28;20097;-84
2020/12/10 02:23:19;;;;;;;43.67;23.85;;;1.10;99.90;;;;;;5053822;28;20109;-83
2020/12/10 02:25:45;;;;;;;48.17;24.02;;;1.10;99.90;;;;;;5071856;28;20070;-84
2020/12/10 02:28:13;;;;;;;45.35;24.48;;;1.10;99.90;;;;;;5055515;28;20475;-84
2020/12/10 02:30:40;;;;;;;42.05;23.50;;;1.10;99.90;;;;;;5062845;28;20543;-84
2020/12/10 02:33:07;;;;;;;41.55;22.52;;;1.00;99.90;;;;;;5054823;28;20021;-84
2020/12/10 02:35:35;;;;;;;43.47;22.08;;;1.00;99.90;;;;;;5063685;28;20051;-84
2020/12/10 02:38:02;;;;;;;41.50;21.80;;;1.00;99.90;;;;;;5059352;28;20496;-84
2020/12/10 02:40:30;;;;;;;40.60;21.45;;;1.00;99.90;;;;;;5053761;28;20032;-85
2020/12/10 02:42:57;;;;;;;46.22;23.73;;;0.90;99.90;;;;;;5061459;28;20025;-84
2020/12/10 02:45:23;;;;;;;43.50;23.15;;;0.90;99.90;;;;;;5056540;28;20025;-85
2020/12/10 02:47:49;;;;;;;40.78;22.10;;;0.90;99.90;;;;;;5056397;28;20380;-85
2020/12/10 02:50:15;;;;;;;41.70;21.25;;;0.90;99.90;;;;;;5059050;28;20021;-85
2020/12/10 02:52:42;;;;;;;39.92;21.27;;;0.90;99.90;;;;;;5065726;28;20016;-85
2020/12/10 02:55:07;;;;;;;47.00;23.27;;;0.80;99.90;;;;;;5067374;28;20013;-86
2020/12/10 02:57:33;;;;;;;44.42;22.42;;;0.80;99.90;;;;;;5067746;28;20388;-86
2020/12/10 02:59:58;;;;;;;42.20;21.13;;;0.80;99.90;;;;;;5062144;28;20697;-86
2020/12/10 03:02:24;;;;;;;42.63;22.27;;;0.80;99.90;;;;;;5056580;28;20028;-86
2020/12/10 03:04:49;;;;;;;40.28;20.45;;;0.80;99.90;;;;;;5059358;28;20025;-86
2020/12/10 03:07:15;;;;;;;37.80;20.67;;;0.70;99.90;;;;;;5077735;28;20021;-87
2020/12/10 03:09:44;;;;;;;37.35;21.00;;;0.70;99.90;;;;;;5064737;28;20021;-86
2020/12/10 03:12:11;;;;;;;36.60;19.00;;;0.70;99.90;;;;;;5059285;28;20025;-88
2020/12/10 03:14:37;;;;;;;42.80;21.02;;;0.70;99.90;;;;;;5066891;28;20073;-87
2020/12/10 03:17:03;;;;;;;39.70;21.10;;;0.70;99.90;;;;;;5063858;28;20468;-87
2020/12/10 03:19:29;;;;;;;39.30;21.67;;;0.70;99.90;;;;;;5060557;28;20031;-87
2020/12/10 03:21:54;;;;;;;46.25;22.33;;;0.70;99.90;;;;;;5061859;28;20020;-88
2020/12/10 03:24:20;;;;;;;37.25;19.73;;;0.60;99.90;;;;;;5080578;28;20021;-87
2020/12/10 03:26:45;;;;;;;40.17;19.08;;;0.60;99.90;;;;;;5060870;28;20024;-88
2020/12/10 03:29:11;;;;;;;33.83;18.20;;;0.60;99.90;;;;;;5094147;28;20058;-87
2020/12/10 03:31:37;;;;;;;36.92;20.20;;;0.60;99.90;;;;;;5079672;28;20016;-87
2020/12/10 03:34:04;;;;;;;38.58;20.20;;;0.60;99.90;;;;;;5081071;28;20025;-88
2020/12/10 03:36:53;;;;;;;40.67;20.20;;;0.70;99.90;;;;;;5062336;28;20028;-88
2020/12/10 03:39:20;;;;;;;36.83;19.17;;;0.70;99.80;;;;;;5060585;28;20028;-88
2020/12/10 03:41:46;;;;;;;33.75;18.17;;;0.70;99.80;;;;;;5064457;28;20056;-88
2020/12/10 03:44:12;;;;;;;37.17;19.50;;;0.70;99.80;;;;;;5060565;28;20017;-88
2020/12/10 03:46:39;;;;;;;35.92;19.42;;;0.70;99.70;;;;;;5057814;28;20423;-88
2020/12/10 03:49:05;;;;;;;33.85;18.35;;;0.70;99.60;;;;;;5063424;28;20059;-89
2020/12/10 03:51:31;;;;;;;34.40;17.25;;;0.60;99.60;;;;;;5088215;28;20071;-89
2020/12/10 03:53:57;;;;;;;33.88;18.02;;;0.60;99.70;;;;;;5067993;28;20484;-90
2020/12/10 03:56:22;;;;;;;36.38;18.45;;;0.60;99.60;;;;;;5066281;28;20101;-90
2020/12/10 03:58:48;;;;;;;35.40;18.73;;;0.60;99.70;;;;;;5083157;28;20024;-89
2020/12/10 04:01:14;;;;;;;34.97;18.23;;;0.60;99.70;;;;;;5080301;28;20028;-90
2020/12/10 04:03:40;;;;;;;37.58;19.98;;;0.50;99.60;;;;;;5068163;28;20052;-90
2020/12/10 04:06:06;;;;;;;36.50;18.42;;;0.50;99.60;;;;;;5079441;28;20099;-90
2020/12/10 04:08:32;;;;;;;36.47;19.30;;;0.50;99.60;;;;;;5078334;28;20052;-90
2020/12/10 04:10:58;;;;;;;38.85;18.75;;;0.40;99.50;;;;;;5065759;28;20059;-91
2020/12/10 04:13:23;;;;;;;35.88;17.63;;;0.40;99.50;;;;;;5063173;28;20074;-91
2020/12/10 04:15:49;;;;;;;31.92;18.00;;;0.40;99.50;;;;;;5069174;28;20037;-92
2020/12/10 04:18:14;;;;;;;31.00;16.20;;;0.40;99.50;;;;;;5062222;28;20021;-91
2020/12/10 04:20:40;;;;;;;30.00;14.65;;;0.40;99.60;;;;;;5083791;28;20067;-91
2020/12/10 04:23:05;;;;;;;38.05;17.45;;;0.40;99.60;;;;;;5071957;28;20021;-91
2020/12/10 04:25:31;;;;;;;36.70;18.05;;;0.40;99.70;;;;;;5071090;28;20054;-92
2020/12/10 04:27:57;;;;;;;36.22;18.42;;;0.40;99.70;;;;;;5079963;28;20042;-92
2020/12/10 04:30:22;;;;;;;35.60;18.05;;;0.50;99.70;;;;;;5081501;28;20025;-93
2020/12/10 04:32:48;;;;;;;36.03;18.95;;;0.50;99.60;;;;;;5079888;28;20027;-93
2020/12/10 04:35:14;;;;;;;30.25;15.25;;;0.50;99.50;;;;;;5086964;28;20028;-93
2020/12/10 04:37:41;;;;;;;28.33;15.77;;;0.50;99.50;;;;;;5102564;28;20036;-92
2020/12/10 04:40:07;;;;;;;30.38;15.45;;;0.40;99.50;;;;;;5084898;28;20020;-91
2020/12/10 04:42:33;;;;;;;27.45;15.27;;;0.50;99.50;;;;;;5074263;28;20048;-92
2020/12/10 04:44:58;;;;;;;33.38;17.17;;;0.50;99.60;;;;;;5094869;28;20011;-91
2020/12/10 04:47:26;;;;;;;31.73;16.52;;;0.50;99.50;;;;;;5077246;28;20112;-92
2020/12/10 04:49:54;;;;;;;37.53;17.23;;;0.40;99.50;;;;;;5077606;28;20028;-92
2020/12/10 04:52:22;;;;;;;32.35;16.70;;;0.40;99.40;;;;;;5092213;28;20025;-92
2020/12/10 04:54:48;;;;;;;33.92;16.73;;;0.40;99.40;;;;;;5071472;28;20024;-92
2020/12/10 04:57:16;;;;;;;36.03;18.30;;;0.40;99.40;;;;;;5072959;28;20021;-90
2020/12/10 04:59:42;;;;;;;36.67;18.20;;;0.30;99.40;;;;;;5074012;28;20031;-93
2020/12/10 05:02:10;;;;;;;34.95;17.35;;;0.30;99.50;;;;;;5061000;28;20020;-93
2020/12/10 05:04:35;;;;;;;35.47;17.38;;;0.30;99.50;;;;;;5069232;28;20025;-92
2020/12/10 05:07:01;;;;;;;37.60;18.15;;;0.30;99.50;;;;;;5087328;28;20016;-91
2020/12/10 05:09:27;;;;;;;37.78;18.70;;;0.20;99.50;;;;;;5079532;28;20146;-92
2020/12/10 05:11:54;;;;;;;33.55;17.10;;;0.20;99.50;;;;;;5076027;28;20009;-92
2020/12/10 05:14:20;;;;;;;37.08;17.92;;;0.20;99.50;;;;;;5065236;28;20028;-93
2020/12/10 05:16:45;;;;;;;35.30;17.75;;;0.20;99.50;;;;;;5059742;28;20013;-92
2020/12/10 05:19:21;;;;;;;34.08;17.42;;;0.20;99.50;;;;;;5064544;28;20034;-93
2020/12/10 05:22:04;;;;;;;41.72;18.80;;;0.20;99.50;;;;;;5061940;28;20016;-92
2020/12/10 05:24:30;;;;;;;33.72;16.58;;;0.20;99.50;;;;;;5077564;28;20044;-91
2020/12/10 05:27:22;;;;;;;36.40;19.08;;;0.20;99.50;;;;;;5059880;28;20028;-92
2020/12/10 05:29:49;;;;;;;35.08;17.70;;;0.20;99.50;;;;;;5077480;28;20082;-92
2020/12/10 05:32:35;;;;;;;35.35;17.63;;;0.10;99.60;;;;;;5057959;28;20024;-93
2020/12/10 05:35:24;;;;;;;39.85;19.17;;;0.20;99.60;;;;;;5075106;28;20024;-92
2020/12/10 05:37:52;;;;;;;34.25;17.20;;;0.10;99.60;;;;;;5059938;28;20028;-91
2020/12/10 05:40:18;;;;;;;39.45;19.10;;;0.10;99.60;;;;;;5060716;28;20036;-91
2020/12/10 05:42:48;;;;;;;35.25;18.35;;;0.10;99.60;;;;;;5058102;28;20017;-91
2020/12/10 05:45:17;;;;;;;34.08;17.83;;;0.10;99.60;;;;;;5055730;28;20032;-93
2020/12/10 05:47:51;;;;;;;35.92;18.52;;;0.10;99.60;;;;;;5075805;28;20121;-92
2020/12/10 05:50:25;;;;;;;39.53;19.88;;;0.10;99.70;;;;;;5060197;28;20044;-92
2020/12/10 05:53:00;;;;;;;34.80;19.42;;;0.10;99.70;;;;;;5074320;28;20016;-91
2020/12/10 05:55:26;;;;;;;37.60;19.15;;;0.10;99.70;;;;;;5074422;28;20024;-91
2020/12/10 05:57:54;;;;;;;34.63;18.67;;;0.10;99.70;;;;;;5056355;28;20020;-90
2020/12/10 06:00:19;;;;;;;35.35;20.25;;;0.10;99.70;;;;;;5065051;28;20062;-90
2020/12/10 06:02:46;;;;;;;41.00;19.50;;;0.00;99.70;;;;;;5058990;28;20020;-90
2020/12/10 06:05:13;;;;;;;35.25;20.27;;;0.10;99.70;;;;;;5086752;28;20055;-89
2020/12/10 06:07:39;;;;;;;36.22;18.27;;;0.00;99.70;;;;;;5087530;28;20028;-89
2020/12/10 06:10:04;;;;;;;36.50;19.63;;;0.00;99.70;;;;;;5061174;28;20030;-89
2020/12/10 06:12:30;;;;;;;42.08;20.10;;;0.00;99.80;;;;;;5060858;28;20020;-89
2020/12/10 06:15:00;;;;;;;42.55;20.02;;;0.00;99.80;;;;;;5063652;28;20022;-89
2020/12/10 06:17:26;;;;;;;38.97;19.50;;;-0.10;99.80;;;;;;5059957;28;20111;-89
2020/12/10 06:19:52;;;;;;;43.33;20.20;;;-0.10;99.90;;;;;;5063474;28;20096;-87
2020/12/10 06:22:28;;;;;;;40.10;20.95;;;-0.10;99.90;;;;;;5073803;28;20028;-88
2020/12/10 06:24:55;;;;;;;42.13;18.73;;;-0.10;99.90;;;;;;5055480;28;20028;-88
2020/12/10 06:27:22;;;;;;;33.80;16.52;;;-0.10;99.90;;;;;;5073038;28;20028;-88
2020/12/10 06:29:47;;;;;;;35.58;18.48;;;-0.10;99.90;;;;;;5055559;28;20059;-88
2020/12/10 06:32:17;;;;;;;46.03;19.98;;;-0.10;99.90;;;;;;5054872;28;20055;-87
2020/12/10 06:34:55;;;;;;;37.90;18.50;;;0.00;99.90;;;;;;5055627;28;20130;-88
2020/12/10 06:37:25;;;;;;;39.47;19.67;;;0.00;99.90;;;;;;5055191;28;20027;-87
2020/12/10 06:39:57;;;;;;;37.28;20.45;;;0.00;99.90;;;;;;5073443;28;20031;-88
2020/12/10 06:42:23;;;;;;;41.70;19.77;;;0.00;99.90;;;;;;5056700;28;20029;-87
2020/12/10 06:44:49;;;;;;;40.28;18.67;;;0.00;99.90;;;;;;5060814;28;20180;-87
2020/12/10 06:47:15;;;;;;;38.08;19.42;;;0.10;99.90;;;;;;5061830;28;20025;-87
2020/12/10 06:49:41;;;;;;;43.95;21.10;;;0.10;99.90;;;;;;5059471;28;20059;-87
2020/12/10 06:52:20;;;;;;;42.92;20.98;;;0.10;99.90;;;;;;5059190;28;20035;-87
2020/12/10 06:55:10;;;;;;;38.60;20.20;;;0.10;99.90;;;;;;5058945;28;20021;-87
2020/12/10 06:58:12;;;;;;;39.70;19.55;;;0.20;99.90;;;;;;5058796;28;20074;-87
2020/12/10 07:00:48;;;;;;;33.95;17.02;;;0.10;99.90;;;;;;5061427;28;20028;-87
2020/12/10 07:03:27;;;;;;;33.15;17.77;;;0.10;99.90;;;;;;5085052;28;20050;-87
2020/12/10 07:05:53;;;;;;;33.75;17.20;;;0.20;99.90;;;;;;5068122;28;20101;-87
2020/12/10 07:08:19;;;;;;;43.33;22.00;;;0.20;99.90;;;;;;5067990;28;20036;-87
2020/12/10 07:10:49;;;;;;;40.85;21.75;;;0.20;99.90;;;;;;5078761;28;20024;-88
2020/12/10 07:13:29;;;;;;;42.38;19.85;;;0.20;99.80;;;;;;5058824;28;20388;-88
2020/12/10 07:15:55;;;;;;;41.20;19.45;;;0.20;99.80;;;;;;5076681;28;20025;-88
2020/12/10 07:18:21;;;;;;;47.10;22.67;;;0.20;99.80;;;;;;5076518;28;20115;-88
2020/12/10 07:20:46;;;;;;;36.95;19.83;;;0.20;99.70;;;;;;5058531;28;20020;-88
2020/12/10 07:23:12;;;;;;;47.28;23.27;;;0.20;99.70;;;;;;5076083;28;20071;-87
2020/12/10 07:25:38;;;;;;;47.08;23.30;;;0.20;99.70;;;;;;5092255;28;20543;-87
2020/12/10 07:28:03;;;;;;;50.85;23.50;;;0.20;99.60;;;;;;5076394;28;20488;-88
2020/12/10 07:30:32;;;;;;;45.15;23.08;;;0.20;99.60;;;;;;5093824;28;20100;-88
2020/12/10 07:32:59;;;;;;;42.92;22.80;;;0.20;99.60;;;;;;5069100;28;20028;-88
2020/12/10 07:35:33;;;;;;;43.72;22.33;;;0.20;99.60;;;;;;5068634;28;20027;-88
2020/12/10 07:38:15;;;;;;;42.25;21.23;;;0.20;99.60;;;;;;5084712;28;20020;-88
2020/12/10 07:40:42;;;;;;;48.55;23.63;;;0.20;99.60;;;;;;5096429;28;20024;-88
2020/12/10 07:43:09;;;;;;;47.55;23.05;;;0.20;99.60;;;;;;5078626;28;20032;-87
2020/12/10 07:45:36;;;;;;;46.03;22.60;;;0.20;99.50;;;;;;5078871;28;20028;-88
2020/12/10 07:48:04;;;;;;;53.38;25.02;;;0.20;99.40;;;;;;5078211;28;20044;-88
2020/12/10 07:50:32;;;;;;;49.35;22.60;;;0.20;99.50;;;;;;5078353;28;20046;-88
2020/12/10 07:53:04;;;;;;;47.58;22.10;;;0.20;99.50;;;;;;5078162;28;20023;-89
2020/12/10 07:55:33;;;;;;;36.15;19.65;;;0.30;99.50;;;;;;5077687;28;20024;-87
2020/12/10 07:58:37;;;;;;;51.53;25.50;;;0.30;99.50;;;;;;5078079;28;20042;-88
2020/12/10 08:01:05;;;;;;;40.60;20.98;;;0.40;99.50;;;;;;5062526;28;20550;-87
2020/12/10 08:03:52;;;;;;;48.17;23.33;;;0.40;99.50;;;;;;5074284;28;20107;-88
2020/12/10 08:06:18;;;;;;;44.58;22.50;;;0.40;99.40;;;;;;5094197;28;20123;-88
2020/12/10 08:08:55;;;;;;;50.42;24.88;;;0.40;99.40;;;;;;5085971;28;20099;-88
2020/12/10 08:11:21;;;;;;;45.47;22.95;;;0.40;99.40;;;;;;5067563;28;20024;-88
2020/12/10 08:14:08;;;;;;;50.10;23.98;;;0.50;99.30;;;;;;5067214;28;20020;-90
2020/12/10 08:16:45;;;;;;;49.40;24.23;;;0.50;99.20;;;;;;5066135;28;20047;-90
2020/12/10 08:19:19;;;;;;;49.83;24.90;;;0.50;99.20;;;;;;5071297;28;20016;-90
2020/12/10 08:21:46;;;;;;;44.65;23.92;;;0.50;99.10;;;;;;5057819;28;20101;-90
2020/12/10 08:24:15;;;;;;;49.75;24.42;;;0.50;99.00;;;;;;5057965;28;20020;-90
2020/12/10 08:26:41;;;;;;;43.75;21.88;;;0.50;99.00;;;;;;5060086;28;20095;-89
2020/12/10 08:29:13;;;;;;;47.40;23.88;;;0.50;99.00;;;;;;5063245;28;20037;-87
2020/12/10 08:31:38;;;;;;;41.92;20.70;;;0.60;99.00;;;;;;5068408;28;20437;-89
2020/12/10 08:34:16;;;;;;;44.70;22.88;;;0.60;99.10;;;;;;5082682;28;20019;-89
2020/12/10 08:36:41;;;;;;;48.83;24.65;;;0.60;99.10;;;;;;5068641;28;20030;-89
2020/12/10 08:39:07;;;;;;;44.75;22.42;;;0.60;99.00;;;;;;5068131;28;20458;-90
2020/12/10 08:41:36;;;;;;;48.03;25.65;;;0.60;99.10;;;;;;5065292;28;20035;-89
2020/12/10 08:44:07;;;;;;;;;;;0.70;99.10;;;;;;5082811;28;20039;-91
2020/12/10 08:46:34;;;;;;;43.05;21.02;;;0.70;99.00;;;;;;5095163;28;20371;-91
2020/12/10 08:49:19;;;;;;;44.03;23.42;;;0.70;99.10;;;;;;5077116;28;20044;-89
2020/12/10 08:51:47;;;;;;;49.90;24.33;;;0.70;98.90;;;;;;5077577;28;20107;-90
2020/12/10 08:54:13;;;;;;;48.33;25.17;;;0.70;98.90;;;;;;5076294;28;20043;-90
2020/12/10 08:56:39;;;;;;;46.72;24.10;;;0.70;98.80;;;;;;5076426;28;20514;-89
2020/12/10 08:59:05;;;;;;;46.00;24.65;;;0.80;98.70;;;;;;5077200;28;20502;-90
2020/12/10 09:01:32;;;;;;;47.80;25.27;;;0.80;98.60;;;;;;5081071;28;20020;-90
2020/12/10 09:03:58;;;;;;;47.83;24.45;;;0.80;98.60;;;;;;5080607;28;20044;-90
2020/12/10 09:06:32;;;;;;;46.88;24.60;;;0.80;98.60;;;;;;5075148;28;20032;-90
2020/12/10 09:08:57;;;;;;;46.00;24.38;;;0.90;98.70;;;;;;5058515;28;20278;-91
2020/12/10 09:11:23;;;;;;;42.55;22.08;;;0.90;98.70;;;;;;5076639;28;20063;-91
2020/12/10 09:13:51;;;;;;;51.78;25.48;;;0.90;98.60;;;;;;5056932;28;20021;-91
2020/12/10 09:16:57;;;;;;;41.47;22.83;;;0.80;98.50;;;;;;5079870;28;20038;-93
2020/12/10 09:19:22;;;;;;;45.50;24.10;;;0.80;98.50;;;;;;5078106;28;20520;-91
2020/12/10 09:21:48;;;;;;;51.28;26.90;;;0.90;98.50;;;;;;5082727;28;20016;-92
2020/12/10 09:24:13;;;;;;;44.63;24.63;;;0.90;98.50;;;;;;5065360;28;20028;-91
2020/12/10 09:26:39;;;;;;;47.20;25.63;;;1.00;98.50;;;;;;5059288;28;20119;-91
2020/12/10 09:29:04;;;;;;;51.30;26.70;;;1.00;98.40;;;;;;5074502;28;20033;-91
2020/12/10 09:31:30;;;;;;;45.40;26.15;;;1.00;98.30;;;;;;5056623;28;20024;-90
2020/12/10 09:33:55;;;;;;;47.20;24.88;;;1.00;98.10;;;;;;5056616;28;20074;-90
2020/12/10 09:36:21;;;;;;;44.58;24.20;;;1.00;98.10;;;;;;5074282;28;20414;-90
2020/12/10 09:38:47;;;;;;;48.10;26.08;;;1.10;98.10;;;;;;5076693;28;20016;-90
2020/12/10 09:41:12;;;;;;;46.83;24.85;;;1.10;98.10;;;;;;5063509;28;20900;-91
2020/12/10 09:43:38;;;;;;;48.47;26.00;;;1.20;98.20;;;;;;5061812;28;20111;-92
2020/12/10 09:46:08;;;;;;;47.00;24.85;;;1.20;98.10;;;;;;5077649;28;20042;-89
2020/12/10 09:48:34;;;;;;;48.67;26.45;;;1.30;98.00;;;;;;5114897;28;20114;-90
2020/12/10 09:51:00;;;;;;;50.92;26.02;;;1.40;97.80;;;;;;5087728;28;20028;-87
2020/12/10 09:53:48;;;;;;;49.53;25.92;;;1.40;97.60;;;;;;5054737;28;20028;-88
2020/12/10 09:58:42;;;;;;;41.25;22.45;;;1.50;97.80;;;;;;5124216;28;20073;-87
2020/12/10 10:01:10;;;;;;;41.55;23.23;;;1.60;97.70;;;;;;5092332;28;20421;-87
2020/12/10 10:03:35;;;;;;;43.80;25.00;;;1.60;97.60;;;;;;5062628;28;20020;-87
2020/12/10 10:06:01;;;;;;;44.55;24.13;;;1.70;97.50;;;;;;5064753;28;20036;-88
2020/12/10 10:08:28;;;;;;;47.22;25.33;;;1.70;97.40;;;;;;5071224;28;20517;-87
2020/12/10 10:10:54;;;;;;;45.17;23.52;;;1.70;97.00;;;;;;5063567;28;20062;-87
2020/12/10 10:13:19;;;;;;;40.90;22.23;;;1.70;97.10;;;;;;5102304;28;20023;-87
2020/12/10 10:15:46;;;;;;;44.22;23.63;;;1.70;97.20;;;;;;5079814;28;20028;-87
2020/12/10 10:18:13;;;;;;;45.00;24.10;;;1.80;97.10;;;;;;5081919;28;20012;-88
2020/12/10 10:20:38;;;;;;;47.55;25.55;;;1.80;97.10;;;;;;5091900;28;20023;-85
2020/12/10 10:23:04;;;;;;;53.10;24.13;;;1.80;97.00;;;;;;5066255;28;20024;-83
2020/12/10 10:25:30;;;;;;;43.78;24.00;;;1.90;97.00;;;;;;5078710;28;20483;-87
2020/12/10 10:27:55;;;;;;;43.65;25.20;;;1.90;97.00;;;;;;5078604;28;20059;-82
2020/12/10 10:30:24;;;;;;;46.53;24.13;;;2.00;96.90;;;;;;5078314;28;20498;-84
2020/12/10 10:32:49;;;;;;;39.30;22.17;;;2.00;96.50;;;;;;5096482;28;20024;-84
2020/12/10 10:35:15;;;;;;;44.25;24.00;;;1.90;96.50;;;;;;5070760;28;20078;-86
2020/12/10 10:37:40;;;;;;;42.65;24.30;;;1.90;96.70;;;;;;5071196;28;20024;-84
2020/12/10 10:40:06;;;;;;;40.65;22.33;;;2.00;96.80;;;;;;5083147;28;20019;-86
2020/12/10 10:42:33;;;;;;;40.10;22.83;;;2.20;97.20;;;;;;5087489;28;20451;-84
2020/12/10 10:44:59;;;;;;;42.40;23.83;;;2.40;96.50;;;;;;5061071;28;20037;-84
2020/12/10 10:47:24;;;;;;;40.58;22.08;;;2.40;95.90;;;;;;5057392;28;20033;-85
2020/12/10 10:49:50;;;;;;;44.10;24.35;;;2.50;95.90;;;;;;5057751;28;20491;-83
2020/12/10 10:52:15;;;;;;;39.33;22.02;;;2.50;95.60;;;;;;5064208;28;20035;-85
2020/12/10 10:54:44;;;;;;;40.65;22.00;;;2.40;95.30;;;;;;5077631;28;20493;-85
2020/12/10 10:57:09;;;;;;;43.30;23.83;;;2.30;95.50;;;;;;5073847;28;20020;-83
2020/12/10 10:59:35;;;;;;;42.55;23.73;;;2.20;95.50;;;;;;5057961;28;20051;-83
2020/12/10 11:02:03;;;;;;;41.08;23.63;;;2.10;95.70;;;;;;5073618;28;20020;-84
2020/12/10 11:04:29;;;;;;;43.15;23.42;;;2.00;95.90;;;;;;5077854;28;20070;-83
2020/12/10 11:06:54;;;;;;;39.65;23.15;;;1.90;96.00;;;;;;5091657;28;20024;-84
2020/12/10 11:09:20;;;;;;;46.65;26.30;;;1.90;96.20;;;;;;5071161;28;20040;-84
2020/12/10 11:11:45;;;;;;;46.75;26.17;;;1.90;96.20;;;;;;5058447;28;20012;-84
2020/12/10 11:14:11;;;;;;;44.03;23.77;;;1.90;96.20;;;;;;5058667;28;20522;-83
2020/12/10 11:16:37;;;;;;;44.42;24.27;;;1.90;96.30;;;;;;5059262;28;20119;-83
2020/12/10 11:19:02;;;;;;;43.63;24.17;;;1.90;96.30;;;;;;5057131;28;20029;-84
2020/12/10 11:21:28;;;;;;;49.13;25.50;;;2.00;96.50;;;;;;5057214;28;20017;-84
2020/12/10 11:23:53;;;;;;;53.97;26.70;;;2.00;96.40;;;;;;5056368;28;20035;-84
2020/12/10 11:26:19;;;;;;;45.10;24.83;;;2.10;96.30;;;;;;5075163;28;20028;-84
2020/12/10 11:28:45;;;;;;;40.90;23.45;;;2.10;96.30;;;;;;5074007;28;20495;-83
2020/12/10 11:31:10;;;;;;;45.80;25.50;;;2.10;96.40;;;;;;5060123;28;20101;-83
2020/12/10 11:33:36;;;;;;;46.20;25.13;;;2.20;96.30;;;;;;5057009;28;20024;-83
2020/12/10 11:36:04;;;;;;;43.15;23.75;;;2.20;96.10;;;;;;5057841;28;20028;-83
2020/12/10 11:38:29;;;;;;;43.55;22.70;;;2.20;96.00;;;;;;5056883;28;20052;-83
2020/12/10 11:40:55;;;;;;;41.67;23.80;;;2.20;96.10;;;;;;5066677;28;20055;-83
2020/12/10 11:43:21;;;;;;;43.47;25.27;;;2.20;96.20;;;;;;5057275;28;20056;-82
2020/12/10 11:45:46;;;;;;;44.03;25.60;;;2.30;96.50;;;;;;5074602;28;20510;-82
2020/12/10 11:48:12;;;;;;;43.70;25.60;;;2.40;96.40;;;;;;5074601;28;20040;-82
2020/12/10 11:50:38;;;;;;;43.97;24.50;;;2.60;96.40;;;;;;5056675;28;20029;-82
2020/12/10 11:53:05;;;;;;;41.25;23.50;;;2.70;96.10;;;;;;5068910;28;20051;-82
2020/12/10 11:55:30;;;;;;;38.72;22.73;;;2.80;95.70;;;;;;5076463;28;20024;-81
2020/12/10 11:57:56;;;;;;;41.30;23.33;;;2.90;95.50;;;;;;5087759;28;20023;-81
2020/12/10 12:00:22;;;;;;;40.97;24.20;;;2.90;95.60;;;;;;5097813;28;20055;-81
2020/12/10 12:02:49;;;;;;;43.08;24.95;;;3.00;95.40;;;;;;5067856;28;20049;-81
2020/12/10 12:05:14;;;;;;;42.97;24.98;;;3.00;95.10;;;;;;5057756;28;20031;-81
2020/12/10 12:07:44;;;;;;;43.70;24.23;;;3.10;95.10;;;;;;5073373;28;20021;-81
2020/12/10 12:10:09;;;;;;;42.55;24.38;;;3.20;95.10;;;;;;5073870;28;20043;-81
2020/12/10 12:12:35;;;;;;;40.85;24.17;;;3.20;95.00;;;;;;5055485;28;20353;-81
2020/12/10 12:15:04;;;;;;;42.10;24.88;;;3.20;94.70;;;;;;5055989;28;20013;-81
2020/12/10 12:17:30;;;;;;;47.10;25.60;;;3.10;94.60;;;;;;5055326;28;20047;-81
2020/12/10 12:19:56;;;;;;;42.83;23.67;;;3.10;94.60;;;;;;5073618;28;20064;-81
2020/12/10 12:22:21;;;;;;;39.58;23.95;;;3.20;94.70;;;;;;5073218;28;20091;-81
2020/12/10 12:24:47;;;;;;;36.92;22.20;;;3.10;94.90;;;;;;5073399;28;20070;-81
2020/12/10 12:27:13;;;;;;;40.25;21.95;;;3.10;94.90;;;;;;5055324;28;20487;-81
2020/12/10 12:29:39;;;;;;;43.35;22.83;;;3.20;95.00;;;;;;5057606;28;20107;-81
2020/12/10 12:32:08;;;;;;;44.13;24.15;;;3.20;95.00;;;;;;5055322;28;20108;-81
2020/12/10 12:34:35;;;;;;;43.13;24.33;;;3.20;94.90;;;;;;5056251;28;20092;-81
2020/12/10 12:37:01;;;;;;;39.88;22.83;;;3.20;94.90;;;;;;5064503;28;20025;-81
2020/12/10 12:39:29;;;;;;;41.53;24.05;;;3.20;94.90;;;;;;5054685;28;20029;-81
2020/12/10 12:41:55;;;;;;;41.72;24.65;;;3.20;95.00;;;;;;5054813;28;20484;-81
2020/12/10 12:44:21;;;;;;;40.08;23.25;;;3.20;94.90;;;;;;5055542;28;20036;-81